createdAt,value
2019-06-26T00:00:47.665Z,97176.00
2019-06-26T00:03:55.490Z,97171.00
2019-06-26T00:07:03.467Z,97173.00
2019-06-26T00:10:11.355Z,97173.00
2019-06-26T00:13:26.342Z,97183.00
2019-06-26T00:16:28.767Z,97173.00
2019-06-26T00:19:36.928Z,97171.00
2019-06-26T00:22:45.018Z,97179.00
2019-06-26T00:25:52.721Z,97180.00
2019-06-26T00:29:17.297Z,97169.00
2019-06-26T00:32:25.086Z,97176.00
2019-06-26T00:35:32.836Z,97172.00
2019-06-26T00:38:40.926Z,97180.00
2019-06-26T00:41:48.591Z,97188.00
2019-06-26T00:44:57.775Z,97186.00
2019-06-26T00:48:05.670Z,97192.00
2019-06-26T00:51:13.386Z,97185.00
2019-06-26T00:54:21.139Z,97191.00
2019-06-26T00:57:28.877Z,97186.00
2019-06-26T01:00:44.072Z,97185.00
2019-06-26T01:03:53.445Z,97171.00
2019-06-26T01:07:01.263Z,97185.00
2019-06-26T01:10:10.650Z,97176.00
2019-06-26T01:13:19.427Z,97176.00
2019-06-26T01:16:27.526Z,97176.00
2019-06-26T01:19:35.360Z,97180.00
2019-06-26T01:22:43.099Z,97190.00
2019-06-26T01:25:50.818Z,97174.00
2019-06-26T01:28:58.546Z,97184.00
2019-06-26T01:32:06.400Z,97177.00
2019-06-26T01:35:14.292Z,97185.00
2019-06-26T01:38:21.937Z,97176.00
2019-06-26T01:41:44.254Z,97184.00
2019-06-26T01:44:52.257Z,97190.00
2019-06-26T01:48:00.935Z,97177.00
2019-06-26T01:51:08.586Z,97183.00
2019-06-26T01:54:16.256Z,97180.00
2019-06-26T01:57:24.311Z,97187.00
2019-06-26T02:00:32.156Z,97189.00
2019-06-26T02:03:39.954Z,97179.00
2019-06-26T02:06:47.806Z,97181.00
2019-06-26T02:09:55.918Z,97185.00
2019-06-26T02:13:03.978Z,97180.00
2019-06-26T02:16:11.960Z,97190.00
2019-06-26T02:19:20.699Z,97197.00
2019-06-26T02:22:28.664Z,97192.00
2019-06-26T02:25:36.427Z,97184.00
2019-06-26T02:28:45.445Z,97197.00
2019-06-26T02:31:53.185Z,97198.00
2019-06-26T02:35:01.061Z,97186.00
2019-06-26T02:38:09.157Z,97186.00
2019-06-26T02:41:18.178Z,97189.00
2019-06-26T02:44:26.602Z,97192.00
2019-06-26T02:47:34.413Z,97200.00
2019-06-26T02:50:42.153Z,97194.00
2019-06-26T02:53:50.282Z,97191.00
2019-06-26T02:56:58.281Z,97202.00
2019-06-26T03:00:07.249Z,97203.00
2019-06-26T03:03:15.459Z,97195.00
2019-06-26T03:06:23.502Z,97190.00
2019-06-26T03:09:31.476Z,97212.00
2019-06-26T03:12:39.229Z,97207.00
2019-06-26T03:15:50.312Z,97209.00
2019-06-26T03:18:56.405Z,97205.00
2019-06-26T03:22:04.510Z,97199.00
2019-06-26T03:25:12.363Z,97209.00
2019-06-26T03:28:20.267Z,97206.00
2019-06-26T03:31:28.067Z,97216.00
2019-06-26T03:34:35.705Z,97214.00
2019-06-26T03:37:43.678Z,97204.00
2019-06-26T03:40:51.371Z,97206.00
2019-06-26T03:43:59.143Z,97218.00
2019-06-26T03:47:07.547Z,97209.00
2019-06-26T03:50:15.363Z,97203.00
2019-06-26T03:53:23.407Z,97208.00
2019-06-26T03:56:31.179Z,97218.00
2019-06-26T03:59:38.922Z,97208.00
2019-06-26T04:02:46.679Z,97218.00
2019-06-26T04:05:54.719Z,97219.00
2019-06-26T04:09:03.523Z,97202.00
2019-06-26T04:12:11.719Z,97231.00
2019-06-26T04:15:20.300Z,97222.00
2019-06-26T04:18:28.023Z,97222.00
2019-06-26T04:21:35.835Z,97227.00
2019-06-26T04:24:43.580Z,97219.00
2019-06-26T04:27:51.429Z,97224.00
2019-06-26T04:30:59.419Z,97228.00
2019-06-26T04:34:07.270Z,97227.00
2019-06-26T04:37:16.480Z,97227.00
2019-06-26T04:40:24.679Z,97222.00
2019-06-26T04:43:32.377Z,97224.00
2019-06-26T04:46:40.249Z,97235.00
2019-06-26T04:49:48.234Z,97246.00
2019-06-26T04:52:56.572Z,97227.00
2019-06-26T04:56:04.451Z,97255.00
2019-06-26T04:59:12.702Z,97236.00
2019-06-26T05:02:21.276Z,97241.00
2019-06-26T05:05:38.948Z,97243.00
2019-06-26T05:08:38.642Z,97238.00
2019-06-26T05:11:47.509Z,97237.00
2019-06-26T05:14:55.430Z,97247.00
2019-06-26T05:18:03.280Z,97225.00
2019-06-26T05:21:11.059Z,97232.00
2019-06-26T05:24:19.132Z,97245.00
2019-06-26T05:27:27.039Z,97254.00
2019-06-26T05:30:34.913Z,97242.00
2019-06-26T05:33:42.992Z,97249.00
2019-06-26T05:36:51.107Z,97243.00
2019-06-26T05:39:59.226Z,97252.00
2019-06-26T05:43:07.171Z,97261.00
2019-06-26T05:46:30.104Z,97259.00
2019-06-26T05:49:24.449Z,97263.00
2019-06-26T05:52:33.065Z,97247.00
2019-06-26T05:55:40.771Z,97257.00
2019-06-26T05:58:48.735Z,97258.00
2019-06-26T06:01:56.604Z,97276.00
2019-06-26T06:05:06.197Z,97272.00
2019-06-26T06:08:13.956Z,97261.00
2019-06-26T06:11:21.848Z,97262.00
2019-06-26T06:14:29.970Z,97271.00
2019-06-26T06:17:38.284Z,97287.00
2019-06-26T06:20:46.487Z,97285.00
2019-06-26T06:23:55.088Z,97274.00
2019-06-26T06:27:02.897Z,97277.00
2019-06-26T06:30:11.454Z,97274.00
2019-06-26T06:33:19.326Z,97276.00
2019-06-26T06:36:27.177Z,97296.00
2019-06-26T06:39:34.949Z,97287.00
2019-06-26T06:42:42.708Z,97286.00
2019-06-26T06:45:50.750Z,97287.00
2019-06-26T06:48:58.516Z,97285.00
2019-06-26T06:52:06.336Z,97304.00
2019-06-26T06:55:14.532Z,97303.00
2019-06-26T06:58:22.239Z,97300.00
2019-06-26T07:01:30.051Z,97302.00
2019-06-26T07:04:38.460Z,97299.00
2019-06-26T07:07:46.248Z,97304.00
2019-06-26T07:10:54.391Z,97309.00
2019-06-26T07:14:02.621Z,97318.00
2019-06-26T07:17:19.917Z,97319.00
2019-06-26T07:20:20.296Z,97309.00
2019-06-26T07:23:28.353Z,97311.00
2019-06-26T07:26:36.250Z,97313.00
2019-06-26T07:29:44.059Z,97321.00
2019-06-26T07:32:51.890Z,97320.00
2019-06-26T07:36:00.040Z,97318.00
2019-06-26T07:39:08.275Z,97316.00
2019-06-26T07:42:16.231Z,97333.00
2019-06-26T07:45:24.376Z,97322.00
2019-06-26T07:48:32.330Z,97316.00
2019-06-26T07:51:40.144Z,97325.00
2019-06-26T07:54:47.953Z,97326.00
2019-06-26T07:57:55.783Z,97332.00
2019-06-26T08:01:03.749Z,97328.00
2019-06-26T08:04:11.901Z,97335.00
2019-06-26T08:07:19.715Z,97329.00
2019-06-26T08:10:27.482Z,97334.00
2019-06-26T08:13:36.183Z,97341.00
2019-06-26T08:16:44.309Z,97330.00
2019-06-26T08:19:52.137Z,97328.00
2019-06-26T08:22:59.886Z,97327.00
2019-06-26T08:26:08.137Z,97329.00
2019-06-26T08:29:16.235Z,97336.00
2019-06-26T08:32:26.036Z,97331.00
2019-06-26T08:35:34.126Z,97330.00
2019-06-26T08:38:42.396Z,97335.00
2019-06-26T08:41:50.449Z,97337.00
2019-06-26T08:44:58.244Z,97329.00
2019-06-26T08:48:17.328Z,97328.00
2019-06-26T08:51:16.362Z,97334.00
2019-06-26T08:54:24.215Z,97336.00
2019-06-26T08:57:32.433Z,97335.00
2019-06-26T09:00:40.242Z,97339.00
2019-06-26T09:03:48.280Z,97346.00
2019-06-26T09:06:56.099Z,97341.00
2019-06-26T09:10:04.343Z,97339.00
2019-06-26T09:13:12.061Z,97345.00
2019-06-26T09:16:20.063Z,97347.00
2019-06-26T09:19:40.038Z,97342.00
2019-06-26T09:22:49.182Z,97346.00
2019-06-26T09:25:57.071Z,97347.00
2019-06-26T09:29:05.011Z,97350.00
2019-06-26T09:32:12.737Z,97354.00
2019-06-26T09:35:20.576Z,97354.00
2019-06-26T09:38:28.240Z,97356.00
2019-06-26T09:41:36.008Z,97367.00
2019-06-26T09:44:43.762Z,97354.00
2019-06-26T09:47:51.666Z,97352.00
2019-06-26T09:51:01.442Z,97359.00
2019-06-26T09:54:09.269Z,97358.00
2019-06-26T09:57:17.130Z,97350.00
2019-06-26T10:00:25.494Z,97353.00
2019-06-26T10:03:33.657Z,97366.00
2019-06-26T10:06:42.100Z,97361.00
2019-06-26T10:09:49.797Z,97360.00
2019-06-26T10:12:57.870Z,97357.00
2019-06-26T10:16:05.984Z,97358.00
2019-06-26T10:19:13.724Z,97342.00
2019-06-26T10:22:21.485Z,97351.00
2019-06-26T10:25:29.279Z,97350.00
2019-06-26T10:28:37.301Z,97360.00
2019-06-26T10:31:45.073Z,97355.00
2019-06-26T10:34:52.809Z,97354.00
2019-06-26T10:38:00.504Z,97346.00
2019-06-26T10:41:08.442Z,97348.00
2019-06-26T10:44:16.264Z,97354.00
2019-06-26T10:47:24.358Z,97349.00
2019-06-26T10:50:31.995Z,97351.00
2019-06-26T10:53:39.771Z,97349.00
2019-06-26T10:56:47.711Z,97351.00
2019-06-26T10:59:56.041Z,97354.00
2019-06-26T11:03:04.045Z,97347.00
2019-06-26T11:06:12.222Z,97341.00
2019-06-26T11:09:19.985Z,97348.00
2019-06-26T11:12:28.945Z,97342.00
2019-06-26T11:15:36.784Z,97341.00
2019-06-26T11:18:44.520Z,97345.00
2019-06-26T11:21:52.815Z,97342.00
2019-06-26T11:25:00.630Z,97324.00
2019-06-26T11:28:08.828Z,97334.00
2019-06-26T11:31:16.654Z,97337.00
2019-06-26T11:34:24.945Z,97327.00
2019-06-26T11:37:32.801Z,97321.00
2019-06-26T11:40:40.556Z,97323.00
2019-06-26T11:43:48.232Z,97324.00
2019-06-26T11:46:56.239Z,97326.00
2019-06-26T11:50:04.638Z,97325.00
2019-06-26T11:53:12.385Z,97327.00
2019-06-26T11:56:20.403Z,97329.00
2019-06-26T11:59:29.069Z,97327.00
2019-06-26T12:02:37.039Z,97319.00
2019-06-26T12:05:44.967Z,97316.00
2019-06-26T12:08:52.801Z,97316.00
2019-06-26T12:12:00.951Z,97319.00
2019-06-26T12:15:09.980Z,97315.00
2019-06-26T12:18:23.630Z,97315.00
2019-06-26T12:21:32.319Z,97315.00
2019-06-26T12:24:40.176Z,97306.00
2019-06-26T12:27:48.246Z,97306.00
2019-06-26T12:30:56.273Z,97312.00
2019-06-26T12:34:07.045Z,97289.00
2019-06-26T12:37:16.313Z,97305.00
2019-06-26T12:40:24.481Z,97299.00
2019-06-26T12:43:32.224Z,97294.00
2019-06-26T12:46:40.727Z,97285.00
2019-06-26T12:49:48.752Z,97295.00
2019-06-26T12:52:56.721Z,97286.00
2019-06-26T12:56:04.607Z,97290.00
2019-06-26T12:59:13.844Z,97292.00
2019-06-26T13:02:22.225Z,97297.00
2019-06-26T13:05:30.181Z,97289.00
2019-06-26T13:08:38.521Z,97284.00
2019-06-26T13:11:46.762Z,97297.00
2019-06-26T13:14:54.575Z,97291.00
2019-06-26T13:18:02.507Z,97277.00
2019-06-26T13:21:10.617Z,97276.00
2019-06-26T13:24:20.699Z,97277.00
2019-06-26T13:27:28.467Z,97270.00
2019-06-26T13:30:39.236Z,97271.00
2019-06-26T13:33:47.587Z,97268.00
2019-06-26T13:36:57.571Z,97268.00
2019-06-26T13:40:06.968Z,97269.00
2019-06-26T13:43:14.784Z,97259.00
2019-06-26T13:46:24.086Z,97263.00
2019-06-26T13:49:31.764Z,97266.00
2019-06-26T13:52:39.583Z,97264.00
2019-06-26T13:55:48.107Z,97257.00
2019-06-26T13:58:56.667Z,97260.00
2019-06-26T14:02:04.829Z,97256.00
2019-06-26T14:05:13.470Z,97263.00
2019-06-26T14:08:21.197Z,97262.00
2019-06-26T14:11:29.508Z,97253.00
2019-06-26T14:14:56.238Z,97247.00
2019-06-26T14:17:47.901Z,97244.00
2019-06-26T14:20:56.226Z,97244.00
2019-06-26T14:24:04.594Z,97245.00
2019-06-26T14:27:13.192Z,97244.00
2019-06-26T14:30:22.890Z,97240.00
2019-06-26T14:33:31.217Z,97239.00
2019-06-26T14:36:40.768Z,97231.00
2019-06-26T14:39:49.166Z,97236.00
2019-06-26T14:42:57.533Z,97237.00
2019-06-26T14:46:05.850Z,97234.00
2019-06-26T14:49:14.190Z,97226.00
2019-06-26T14:52:22.486Z,97222.00
2019-06-26T14:55:30.824Z,97231.00
2019-06-26T14:58:39.186Z,97233.00
2019-06-26T15:01:47.890Z,97222.00
2019-06-26T15:04:56.209Z,97220.00
2019-06-26T15:08:04.619Z,97213.00
2019-06-26T15:11:15.512Z,97209.00
2019-06-26T15:14:23.013Z,97218.00
2019-06-26T15:17:31.821Z,97209.00
2019-06-26T15:20:40.346Z,97204.00
2019-06-26T15:23:48.859Z,97190.00
2019-06-26T15:26:57.252Z,97196.00
2019-06-26T15:30:06.261Z,97188.00
2019-06-26T15:33:14.609Z,97181.00
2019-06-26T15:36:23.085Z,97179.00
2019-06-26T15:39:31.462Z,97182.00
2019-06-26T15:42:40.106Z,97179.00
2019-06-26T15:45:48.412Z,97169.00
2019-06-26T15:48:56.811Z,97164.00
2019-06-26T15:52:14.571Z,97166.00
2019-06-26T15:55:15.195Z,97162.00
2019-06-26T15:58:23.865Z,97170.00
2019-06-26T16:01:32.746Z,97167.00
2019-06-26T16:04:41.599Z,97171.00
2019-06-26T16:07:50.620Z,97171.00
2019-06-26T16:10:59.077Z,97178.00
2019-06-26T16:14:07.459Z,97172.00
2019-06-26T16:17:22.279Z,97164.00
2019-06-26T16:20:30.587Z,97158.00
2019-06-26T16:23:39.217Z,97160.00
2019-06-26T16:26:47.872Z,97168.00
2019-06-26T16:29:57.357Z,97160.00
2019-06-26T16:33:07.732Z,97171.00
2019-06-26T16:36:16.081Z,97168.00
2019-06-26T16:39:24.383Z,97164.00
2019-06-26T16:42:32.714Z,97169.00
2019-06-26T16:45:41.040Z,97160.00
2019-06-26T16:48:49.359Z,97167.00
2019-06-26T16:51:57.687Z,97152.00
2019-06-26T16:55:07.115Z,97151.00
2019-06-26T16:58:16.887Z,97147.00
2019-06-26T17:01:25.181Z,97143.00
2019-06-26T17:04:34.155Z,97146.00
2019-06-26T17:07:42.518Z,97142.00
2019-06-26T17:10:50.995Z,97140.00
2019-06-26T17:13:59.746Z,97144.00
2019-06-26T17:17:08.064Z,97149.00
2019-06-26T17:20:16.497Z,97146.00
2019-06-26T17:23:24.876Z,97155.00
2019-06-26T17:26:33.208Z,97153.00
2019-06-26T17:29:41.495Z,97151.00
2019-06-26T17:32:50.388Z,97153.00
2019-06-26T17:35:58.792Z,97146.00
2019-06-26T17:39:08.307Z,97145.00
2019-06-26T17:42:16.631Z,97138.00
2019-06-26T17:45:24.969Z,97146.00
2019-06-26T17:48:33.283Z,97141.00
2019-06-26T17:51:41.601Z,97144.00
2019-06-26T17:54:50.217Z,97138.00
2019-06-26T17:57:58.642Z,97145.00
2019-06-26T18:01:06.933Z,97146.00
2019-06-26T18:04:15.269Z,97131.00
2019-06-26T18:07:23.895Z,97139.00
2019-06-26T18:10:32.208Z,97149.00
2019-06-26T18:13:40.644Z,97137.00
2019-06-26T18:16:49.085Z,97140.00
2019-06-26T18:19:58.079Z,97139.00
2019-06-26T18:23:07.898Z,97147.00
2019-06-26T18:26:16.883Z,97138.00
2019-06-26T18:29:26.675Z,97149.00
2019-06-26T18:32:35.121Z,97149.00
2019-06-26T18:35:43.482Z,97150.00
2019-06-26T18:38:51.933Z,97143.00
2019-06-26T18:42:00.577Z,97145.00
2019-06-26T18:45:09.645Z,97146.00
2019-06-26T18:48:18.000Z,97147.00
2019-06-26T18:51:26.393Z,97145.00
2019-06-26T18:54:34.700Z,97155.00
2019-06-26T18:57:43.171Z,97163.00
2019-06-26T19:00:51.516Z,97149.00
2019-06-26T19:04:00.243Z,97156.00
2019-06-26T19:07:20.969Z,97150.00
2019-06-26T19:10:29.755Z,97150.00
2019-06-26T19:13:38.196Z,97157.00
2019-06-26T19:16:46.634Z,97167.00
2019-06-26T19:19:55.188Z,97163.00
2019-06-26T19:23:03.504Z,97170.00
2019-06-26T19:26:11.810Z,97161.00
2019-06-26T19:29:20.302Z,97171.00
2019-06-26T19:32:29.314Z,97168.00
2019-06-26T19:35:38.548Z,97172.00
2019-06-26T19:38:46.940Z,97170.00
2019-06-26T19:41:55.363Z,97177.00
2019-06-26T19:45:04.091Z,97180.00
2019-06-26T19:48:12.692Z,97177.00
2019-06-26T19:51:20.996Z,97171.00
2019-06-26T19:54:32.285Z,97174.00
2019-06-26T19:57:39.786Z,97193.00
2019-06-26T20:00:48.736Z,97183.00
2019-06-26T20:03:57.362Z,97172.00
2019-06-26T20:07:06.031Z,97175.00
2019-06-26T20:10:15.006Z,97182.00
2019-06-26T20:13:23.884Z,97177.00
2019-06-26T20:16:32.322Z,97181.00
2019-06-26T20:19:40.701Z,97174.00
2019-06-26T20:22:49.536Z,97171.00
2019-06-26T20:25:57.841Z,97173.00
2019-06-26T20:29:06.289Z,97166.00
2019-06-26T20:32:14.173Z,97179.00
2019-06-26T20:35:22.313Z,97164.00
2019-06-26T20:38:30.429Z,97155.00
2019-06-26T20:41:38.951Z,97167.00
2019-06-26T20:44:46.784Z,97182.00
2019-06-26T20:47:54.721Z,97183.00
2019-06-26T20:51:03.554Z,97182.00
2019-06-26T20:54:11.884Z,97183.00
2019-06-26T20:57:20.032Z,97176.00
2019-06-26T21:00:27.965Z,97171.00
2019-06-26T21:03:36.125Z,97167.00
2019-06-26T21:06:43.906Z,97188.00
2019-06-26T21:09:51.724Z,97183.00
2019-06-26T21:12:59.701Z,97183.00
2019-06-26T21:16:07.518Z,97178.00
2019-06-26T21:19:15.437Z,97185.00
2019-06-26T21:22:23.413Z,97194.00
2019-06-26T21:25:31.628Z,97182.00
2019-06-26T21:28:39.327Z,97178.00
2019-06-26T21:31:47.414Z,97183.00
2019-06-26T21:34:55.743Z,97178.00
2019-06-26T21:38:03.478Z,97183.00
2019-06-26T21:41:11.226Z,97180.00
2019-06-26T21:44:19.201Z,97185.00
2019-06-26T21:47:26.956Z,97188.00
2019-06-26T21:50:35.064Z,97186.00
2019-06-26T21:53:42.849Z,97189.00
2019-06-26T21:57:09.487Z,97187.00
2019-06-26T22:00:36.465Z,97188.00
2019-06-26T22:04:02.565Z,97182.00
2019-06-26T22:07:15.115Z,97186.00
2019-06-26T22:10:33.720Z,97192.00
2019-06-26T22:13:41.513Z,97176.00
2019-06-26T22:16:49.249Z,97184.00
2019-06-26T22:19:57.571Z,97186.00
2019-06-26T22:23:06.149Z,97187.00
2019-06-26T22:26:14.659Z,97188.00
2019-06-26T22:29:22.424Z,97184.00
2019-06-26T22:32:30.543Z,97181.00
2019-06-26T22:35:38.465Z,97180.00
2019-06-26T22:38:47.451Z,97189.00
2019-06-26T22:41:55.509Z,97177.00
2019-06-26T22:45:03.397Z,97179.00
2019-06-26T22:48:11.300Z,97175.00
2019-06-26T22:51:19.413Z,97179.00
2019-06-26T22:54:27.121Z,97183.00
2019-06-26T22:57:34.877Z,97189.00
2019-06-26T23:00:47.502Z,97190.00
2019-06-26T23:03:53.295Z,97185.00
2019-06-26T23:07:01.339Z,97190.00
2019-06-26T23:10:09.629Z,97194.00
2019-06-26T23:13:17.603Z,97191.00
2019-06-26T23:16:25.432Z,97193.00
2019-06-26T23:19:33.165Z,97195.00
2019-06-26T23:22:40.987Z,97183.00
2019-06-26T23:25:49.262Z,97188.00
2019-06-26T23:28:57.112Z,97180.00
2019-06-26T23:32:04.855Z,97190.00
2019-06-26T23:35:12.676Z,97177.00
2019-06-26T23:38:22.159Z,97180.00
2019-06-26T23:41:30.362Z,97178.00
2019-06-26T23:44:38.112Z,97187.00
2019-06-26T23:47:45.853Z,97187.00
2019-06-26T23:50:53.529Z,97174.00
2019-06-26T23:54:01.357Z,97183.00
2019-06-26T23:57:09.137Z,97168.00
